createdAt,value
2023-02-11T00:00:09.994Z,61.47
2023-02-11T00:02:40.391Z,59.04
2023-02-11T00:05:21.991Z,58.91
2023-02-11T00:08:21.032Z,58.70
2023-02-11T00:11:19.218Z,58.33
2023-02-11T00:14:14.540Z,58.19
2023-02-11T00:16:44.982Z,58.05
2023-02-11T00:19:12.204Z,57.73
2023-02-11T00:21:49.779Z,57.86
2023-02-11T00:24:19.817Z,57.63
2023-02-11T00:27:10.414Z,57.69
2023-02-11T00:30:42.295Z,57.43
2023-02-11T00:33:16.279Z,57.24
2023-02-11T00:36:18.305Z,57.00
2023-02-11T00:38:54.468Z,57.24
2023-02-11T00:41:48.386Z,56.86
2023-02-11T00:44:22.142Z,57.08
2023-02-11T00:47:29.069Z,57.13
2023-02-11T00:50:05.834Z,57.41
2023-02-11T00:52:48.852Z,57.68
2023-02-11T00:55:34.807Z,57.53
2023-02-11T00:58:23.048Z,57.65
2023-02-11T01:01:16.130Z,57.47
2023-02-11T01:04:06.430Z,57.56
2023-02-11T01:07:04.218Z,57.67
2023-02-11T01:09:31.765Z,57.33
2023-02-11T01:12:14.408Z,57.42
2023-02-11T01:14:44.200Z,57.63
2023-02-11T01:17:18.734Z,57.45
2023-02-11T01:20:07.136Z,57.41
2023-02-11T01:22:39.633Z,57.43
2023-02-11T01:25:59.888Z,57.43
2023-02-11T01:28:55.366Z,57.60
2023-02-11T01:31:22.712Z,57.67
2023-02-11T01:34:10.701Z,57.72
2023-02-11T01:36:38.878Z,57.58
2023-02-11T01:39:15.143Z,57.83
2023-02-11T01:42:29.016Z,58.16
2023-02-11T01:46:15.560Z,58.17
2023-02-11T01:49:19.889Z,58.19
2023-02-11T01:53:15.308Z,58.35
2023-02-11T01:57:05.113Z,58.25
2023-02-11T02:01:11.389Z,58.61
2023-02-11T02:04:17.348Z,58.89
2023-02-11T02:07:06.765Z,58.94
2023-02-11T02:10:10.021Z,58.76
2023-02-11T02:12:49.185Z,58.90
2023-02-11T02:15:53.489Z,58.97
2023-02-11T02:19:28.057Z,58.63
2023-02-11T02:22:45.497Z,58.43
2023-02-11T02:26:08.653Z,58.31
2023-02-11T02:29:28.245Z,58.76
2023-02-11T02:33:05.746Z,58.59
2023-02-11T02:36:35.533Z,58.58
2023-02-11T02:39:38.959Z,58.93
2023-02-11T02:42:43.260Z,58.85
2023-02-11T02:45:28.033Z,58.55
2023-02-11T02:48:06.667Z,58.52
2023-02-11T02:50:36.876Z,58.47
2023-02-11T02:53:27.538Z,58.54
2023-02-11T02:56:38.556Z,58.66
2023-02-11T03:00:04.110Z,58.59
2023-02-11T03:03:38.929Z,58.59
2023-02-11T03:07:22.357Z,58.64
2023-02-11T03:10:34.091Z,58.55
2023-02-11T03:13:17.679Z,58.57
2023-02-11T03:16:42.138Z,58.69
2023-02-11T03:19:37.575Z,58.92
2023-02-11T03:22:41.490Z,58.44
2023-02-11T03:25:14.397Z,58.46
2023-02-11T03:28:34.891Z,58.19
2023-02-11T03:31:31.052Z,58.29
2023-02-11T03:34:38.583Z,57.94
2023-02-11T03:38:06.573Z,57.99
2023-02-11T03:40:52.091Z,57.95
2023-02-11T03:43:25.201Z,57.77
2023-02-11T03:45:57.611Z,57.82
2023-02-11T03:49:02.194Z,57.99
2023-02-11T03:51:32.899Z,57.93
2023-02-11T03:54:15.293Z,57.85
2023-02-11T03:57:01.910Z,57.66
2023-02-11T04:00:05.741Z,57.58
2023-02-11T04:03:31.613Z,57.55
2023-02-11T04:06:44.467Z,57.63
2023-02-11T04:09:26.195Z,57.69
2023-02-11T04:11:57.097Z,57.91
2023-02-11T04:14:38.102Z,57.62
2023-02-11T04:17:16.283Z,57.91
2023-02-11T04:19:59.236Z,57.76
2023-02-11T04:22:38.033Z,57.90
2023-02-11T04:25:31.154Z,57.70
2023-02-11T04:28:37.549Z,57.86
2023-02-11T04:31:58.382Z,57.87
2023-02-11T04:35:10.334Z,57.88
2023-02-11T04:38:07.586Z,57.78
2023-02-11T04:41:04.958Z,57.74
2023-02-11T04:44:07.227Z,57.68
2023-02-11T04:47:00.919Z,57.34
2023-02-11T04:49:57.084Z,57.53
2023-02-11T04:52:27.777Z,57.13
2023-02-11T04:55:43.023Z,56.96
2023-02-11T04:58:36.964Z,57.03
2023-02-11T05:01:53.417Z,56.80
2023-02-11T05:04:27.352Z,57.02
2023-02-11T05:07:35.439Z,56.85
2023-02-11T05:10:31.241Z,56.16
2023-02-11T05:13:12.626Z,56.51
2023-02-11T05:16:11.233Z,56.88
2023-02-11T05:19:11.391Z,56.33
2023-02-11T05:21:53.136Z,56.38
2023-02-11T05:24:27.746Z,56.19
2023-02-11T05:27:25.947Z,56.53
2023-02-11T05:30:18.468Z,56.47
2023-02-11T05:33:10.706Z,56.20
2023-02-11T05:35:49.360Z,56.14
2023-02-11T05:38:30.925Z,56.05
2023-02-11T05:40:58.619Z,55.98
2023-02-11T05:43:51.115Z,55.78
2023-02-11T05:46:24.767Z,55.65
2023-02-11T05:49:15.481Z,56.01
2023-02-11T05:51:42.401Z,55.76
2023-02-11T05:54:13.159Z,55.93
2023-02-11T05:56:46.168Z,55.97
2023-02-11T05:59:14.564Z,55.70
2023-02-11T06:01:47.923Z,55.94
2023-02-11T06:04:21.045Z,56.31
2023-02-11T06:07:16.897Z,55.84
2023-02-11T06:09:45.071Z,56.10
2023-02-11T06:12:24.680Z,55.99
2023-02-11T06:15:15.313Z,56.20
2023-02-11T06:17:48.345Z,55.52
2023-02-11T06:20:22.020Z,55.64
2023-02-11T06:22:52.193Z,55.79
2023-02-11T06:25:32.897Z,55.53
2023-02-11T06:28:10.473Z,55.47
2023-02-11T06:30:58.769Z,55.16
2023-02-11T06:33:56.637Z,55.39
2023-02-11T06:37:00.559Z,55.38
2023-02-11T06:39:30.878Z,54.98
2023-02-11T06:41:58.629Z,54.90
2023-02-11T06:44:29.413Z,54.99
2023-02-11T06:47:04.433Z,54.89
2023-02-11T06:49:46.647Z,54.75
2023-02-11T06:52:22.548Z,54.65
2023-02-11T06:55:01.022Z,54.96
2023-02-11T06:58:12.545Z,54.52
2023-02-11T07:01:07.318Z,53.84
2023-02-11T07:04:09.383Z,53.64
2023-02-11T07:06:46.784Z,53.26
2023-02-11T07:09:23.422Z,53.40
2023-02-11T07:12:33.681Z,52.77
2023-02-11T07:15:37.972Z,52.80
2023-02-11T07:18:39.376Z,52.35
2023-02-11T07:21:57.420Z,52.27
2023-02-11T07:24:53.935Z,51.96
2023-02-11T07:27:40.055Z,51.82
2023-02-11T07:30:18.896Z,52.30
2023-02-11T07:32:46.299Z,51.61
2023-02-11T07:35:28.457Z,52.05
2023-02-11T07:37:58.723Z,51.95
2023-02-11T07:40:32.487Z,51.94
2023-02-11T07:43:01.328Z,51.02
2023-02-11T07:45:51.108Z,50.71
2023-02-11T07:48:30.279Z,50.83
2023-02-11T07:51:10.179Z,50.86
2023-02-11T07:53:40.604Z,50.69
2023-02-11T07:56:29.811Z,50.70
2023-02-11T07:59:01.256Z,50.75
2023-02-11T08:01:28.978Z,50.98
2023-02-11T08:04:02.678Z,51.33
2023-02-11T08:06:46.032Z,49.77
2023-02-11T08:09:20.161Z,49.76
2023-02-11T08:11:55.851Z,49.27
2023-02-11T08:14:33.921Z,47.92
2023-02-11T08:17:09.895Z,46.45
2023-02-11T08:19:37.174Z,44.94
2023-02-11T08:22:13.692Z,44.65
2023-02-11T08:24:41.922Z,43.81
2023-02-11T08:27:21.498Z,44.03
2023-02-11T08:29:51.359Z,42.40
2023-02-11T08:32:25.424Z,41.88
2023-02-11T08:34:53.110Z,40.61
2023-02-11T08:37:22.978Z,39.69
2023-02-11T08:39:53.469Z,40.14
2023-02-11T08:42:23.146Z,40.25
2023-02-11T08:44:53.343Z,41.58
2023-02-11T08:47:23.338Z,41.37
2023-02-11T08:49:50.207Z,41.69
2023-02-11T08:52:28.341Z,40.95
2023-02-11T08:55:01.816Z,40.27
2023-02-11T08:57:34.900Z,40.99
2023-02-11T09:00:02.760Z,41.23
2023-02-11T09:02:37.640Z,41.02
2023-02-11T09:05:05.059Z,40.65
2023-02-11T09:07:36.751Z,41.69
2023-02-11T09:10:07.281Z,41.94
2023-02-11T09:12:42.342Z,42.92
2023-02-11T09:15:09.803Z,42.53
2023-02-11T09:17:39.401Z,42.66
2023-02-11T09:20:13.007Z,42.78
2023-02-11T09:22:41.237Z,43.06
2023-02-11T09:25:14.602Z,42.52
2023-02-11T09:27:47.608Z,42.94
2023-02-11T09:30:14.895Z,43.55
2023-02-11T09:32:54.653Z,42.64
2023-02-11T09:35:24.156Z,42.42
2023-02-11T09:37:51.880Z,43.01
2023-02-11T09:40:20.133Z,42.70
2023-02-11T09:43:09.055Z,42.45
2023-02-11T09:45:53.034Z,42.92
2023-02-11T09:48:29.277Z,42.61
2023-02-11T09:51:01.900Z,42.42
2023-02-11T09:53:35.922Z,42.91
2023-02-11T09:56:16.219Z,42.86
2023-02-11T09:58:54.402Z,42.84
2023-02-11T10:01:45.274Z,42.34
2023-02-11T10:04:22.318Z,41.94
2023-02-11T10:07:24.714Z,42.41
2023-02-11T10:10:10.710Z,40.67
2023-02-11T10:12:49.522Z,40.13
2023-02-11T10:16:25.979Z,39.70
2023-02-11T10:19:35.731Z,40.26
2023-02-11T10:22:13.229Z,41.42
2023-02-11T10:24:41.735Z,40.19
2023-02-11T10:27:18.069Z,40.17
2023-02-11T10:30:07.232Z,39.51
2023-02-11T10:33:20.397Z,39.69
2023-02-11T10:35:52.005Z,40.34
2023-02-11T10:38:36.566Z,39.76
2023-02-11T10:41:12.206Z,40.57
2023-02-11T10:43:39.456Z,39.32
2023-02-11T10:46:26.818Z,37.37
2023-02-11T10:48:59.394Z,36.51
2023-02-11T10:51:33.676Z,37.45
2023-02-11T10:54:24.543Z,35.77
2023-02-11T10:57:22.399Z,34.66
2023-02-11T10:59:59.872Z,33.06
2023-02-11T11:02:35.798Z,32.72
2023-02-11T11:05:16.340Z,32.67
2023-02-11T11:08:15.203Z,31.79
2023-02-11T11:10:50.370Z,31.36
2023-02-11T11:13:58.167Z,31.35
2023-02-11T11:16:43.052Z,30.12
2023-02-11T11:19:21.955Z,30.01
2023-02-11T11:22:34.062Z,29.52
2023-02-11T11:25:01.684Z,29.66
2023-02-11T11:27:31.458Z,27.73
2023-02-11T11:30:14.338Z,27.94
2023-02-11T11:32:57.351Z,28.95
2023-02-11T11:35:33.101Z,28.39
2023-02-11T11:38:24.593Z,28.41
2023-02-11T11:41:21.619Z,27.90
2023-02-11T11:44:24.285Z,28.07
2023-02-11T11:47:05.006Z,27.71
2023-02-11T11:49:42.100Z,28.30
2023-02-11T11:52:38.332Z,28.96
2023-02-11T11:55:54.286Z,29.59
2023-02-11T11:58:22.497Z,29.78
2023-02-11T12:01:19.399Z,30.54
2023-02-11T12:04:32.895Z,30.56
2023-02-11T12:07:25.444Z,31.39
2023-02-11T12:09:59.440Z,31.59
2023-02-11T12:12:44.712Z,31.57
2023-02-11T12:15:50.821Z,31.98
2023-02-11T12:18:33.521Z,32.62
2023-02-11T12:21:14.500Z,33.07
2023-02-11T12:24:09.620Z,34.31
2023-02-11T12:27:34.244Z,34.98
2023-02-11T12:30:15.532Z,35.27
2023-02-11T12:33:08.680Z,35.37
2023-02-11T12:36:02.480Z,36.01
2023-02-11T12:39:06.548Z,35.92
2023-02-11T12:42:05.632Z,35.23
2023-02-11T12:45:12.759Z,35.02
2023-02-11T12:48:22.956Z,35.21
2023-02-11T12:51:00.640Z,35.83
2023-02-11T12:53:53.950Z,36.51
2023-02-11T12:56:27.024Z,36.71
2023-02-11T12:59:13.107Z,36.04
2023-02-11T13:01:44.183Z,35.80
2023-02-11T13:04:58.992Z,35.23
2023-02-11T13:07:37.115Z,35.01
2023-02-11T13:10:17.078Z,35.13
2023-02-11T13:13:08.504Z,35.27
2023-02-11T13:15:38.295Z,34.23
2023-02-11T13:18:39.059Z,34.22
2023-02-11T13:21:25.773Z,34.00
2023-02-11T13:24:48.112Z,34.13
2023-02-11T13:27:58.854Z,34.35
2023-02-11T13:30:40.671Z,35.06
2023-02-11T13:33:17.707Z,35.57
2023-02-11T13:36:19.787Z,35.40
2023-02-11T13:38:58.312Z,35.55
2023-02-11T13:41:42.177Z,36.27
2023-02-11T13:44:22.444Z,35.98
2023-02-11T13:46:58.246Z,36.26
2023-02-11T13:49:40.683Z,36.28
2023-02-11T13:52:21.655Z,37.17
2023-02-11T13:54:52.978Z,37.14
2023-02-11T13:57:44.714Z,38.22
2023-02-11T14:00:47.194Z,37.81
2023-02-11T14:03:32.524Z,37.90
2023-02-11T14:06:27.644Z,39.01
2023-02-11T14:09:10.899Z,39.54
2023-02-11T14:11:45.216Z,40.05
2023-02-11T14:14:28.895Z,39.93
2023-02-11T14:16:59.207Z,40.07
2023-02-11T14:19:40.322Z,40.61
2023-02-11T14:22:10.496Z,40.89
2023-02-11T14:24:47.551Z,40.96
2023-02-11T14:27:21.450Z,41.46
2023-02-11T14:29:54.043Z,41.49
2023-02-11T14:33:07.210Z,41.40
2023-02-11T14:35:45.782Z,41.83
2023-02-11T14:38:35.163Z,42.50
2023-02-11T14:41:11.114Z,42.63
2023-02-11T14:43:41.533Z,42.53
2023-02-11T16:06:40.617Z,52.18
2023-02-11T16:09:34.018Z,51.20
2023-02-11T16:12:27.285Z,50.77
2023-02-11T16:14:56.828Z,50.76
2023-02-11T16:17:30.648Z,50.94
2023-02-11T16:19:58.032Z,50.75
2023-02-11T16:22:38.431Z,50.40
2023-02-11T16:25:25.964Z,50.86
2023-02-11T16:28:26.193Z,50.64
2023-02-11T16:30:56.818Z,50.61
2023-02-11T16:33:30.193Z,50.89
2023-02-11T16:36:27.301Z,51.40
2023-02-11T16:38:57.012Z,50.97
2023-02-11T16:41:24.123Z,50.73
2023-02-11T16:43:51.613Z,50.72
2023-02-11T16:46:26.747Z,50.66
2023-02-11T16:49:39.099Z,51.44
2023-02-11T16:52:08.096Z,51.70
2023-02-11T16:54:35.921Z,51.57
2023-02-11T16:57:20.784Z,52.52
2023-02-11T16:59:51.373Z,52.38
2023-02-11T17:02:30.434Z,51.96
2023-02-11T17:05:04.989Z,52.23
2023-02-11T17:07:37.897Z,52.18
2023-02-11T17:10:17.376Z,52.30
2023-02-11T17:12:48.230Z,52.86
2023-02-11T17:15:18.893Z,53.28
2023-02-11T17:17:51.207Z,53.74
2023-02-11T17:20:24.209Z,54.09
2023-02-11T17:22:54.295Z,54.20
2023-02-11T17:25:27.746Z,55.21
2023-02-11T17:28:23.178Z,55.22
2023-02-11T17:30:50.738Z,55.68
2023-02-11T17:33:53.185Z,55.77
2023-02-11T17:36:23.518Z,55.69
2023-02-11T17:38:55.156Z,55.47
2023-02-11T17:41:24.934Z,56.08
2023-02-11T17:43:57.908Z,56.23
2023-02-11T17:46:35.519Z,56.24
2023-02-11T17:49:03.660Z,56.42
2023-02-11T17:51:35.220Z,56.73
2023-02-11T17:54:19.992Z,56.87
2023-02-11T17:56:50.532Z,56.67
2023-02-11T17:59:29.398Z,57.11
2023-02-11T18:01:56.604Z,56.94
2023-02-11T18:04:27.550Z,56.67
2023-02-11T18:07:05.100Z,57.87
2023-02-11T18:09:47.705Z,58.22
2023-02-11T18:12:25.288Z,58.06
2023-02-11T18:14:58.116Z,58.64
2023-02-11T18:17:28.525Z,58.51
2023-02-11T18:19:56.990Z,59.20
2023-02-11T18:22:24.783Z,59.80
2023-02-11T18:25:05.079Z,60.31
2023-02-11T18:27:37.287Z,59.96
2023-02-11T18:30:05.682Z,60.72
2023-02-11T18:32:38.335Z,60.31
2023-02-11T18:35:14.922Z,59.89
2023-02-11T18:37:59.872Z,60.53
2023-02-11T18:40:29.789Z,61.05
2023-02-11T18:43:00.211Z,60.93
2023-02-11T18:45:31.371Z,62.68
2023-02-11T18:48:01.655Z,63.06
2023-02-11T18:50:31.296Z,62.45
2023-02-11T18:52:58.874Z,60.38
2023-02-11T18:55:36.658Z,59.77
2023-02-11T18:58:04.375Z,60.12
2023-02-11T19:00:35.034Z,60.46
2023-02-11T19:03:08.218Z,61.48
2023-02-11T19:05:49.022Z,61.73
2023-02-11T19:08:17.288Z,62.18
2023-02-11T19:10:49.553Z,62.68
2023-02-11T19:13:16.894Z,63.57
2023-02-11T19:15:48.760Z,64.02
2023-02-11T19:18:16.539Z,63.49
2023-02-11T19:20:46.740Z,61.16
2023-02-11T19:23:14.089Z,60.86
2023-02-11T19:25:46.056Z,60.89
2023-02-11T19:28:13.905Z,61.82
2023-02-11T19:30:41.527Z,63.03
2023-02-11T19:33:25.937Z,63.94
2023-02-11T19:35:55.846Z,64.38
2023-02-11T19:38:23.818Z,65.63
2023-02-11T19:40:58.661Z,64.92
2023-02-11T19:43:29.800Z,62.99
2023-02-11T19:45:59.972Z,62.09
2023-02-11T19:48:30.552Z,62.84
2023-02-11T19:51:07.601Z,63.41
2023-02-11T19:53:38.965Z,63.56
2023-02-11T19:56:10.288Z,64.59
2023-02-11T19:58:38.077Z,65.35
2023-02-11T20:01:19.318Z,66.56
2023-02-11T20:03:59.415Z,66.14
2023-02-11T20:06:33.801Z,64.22
2023-02-11T20:09:07.150Z,63.86
2023-02-11T20:11:34.603Z,63.64
2023-02-11T20:14:07.673Z,64.86
2023-02-11T20:16:49.845Z,65.45
2023-02-11T20:19:24.997Z,66.44
2023-02-11T20:21:56.155Z,66.40
2023-02-11T20:24:24.560Z,66.75
2023-02-11T20:26:57.739Z,64.45
2023-02-11T20:29:31.366Z,63.91
2023-02-11T20:32:04.120Z,63.74
2023-02-11T20:34:32.420Z,64.77
2023-02-11T20:37:04.330Z,65.46
2023-02-11T20:39:37.435Z,65.68
2023-02-11T20:42:04.980Z,66.54
2023-02-11T20:44:43.083Z,66.13
2023-02-11T20:47:13.821Z,64.63
2023-02-11T20:49:41.112Z,64.55
2023-02-11T20:52:08.585Z,64.68
2023-02-11T20:54:36.291Z,65.44
2023-02-11T20:57:08.281Z,66.57
2023-02-11T20:59:36.154Z,67.20
2023-02-11T21:02:24.839Z,67.79
2023-02-11T21:04:58.003Z,67.19
2023-02-11T21:07:29.404Z,65.96
2023-02-11T21:09:57.467Z,65.34
2023-02-11T21:12:24.543Z,65.81
2023-02-11T21:14:52.140Z,67.23
2023-02-11T21:17:38.762Z,67.96
2023-02-11T21:20:07.242Z,68.50
2023-02-11T21:22:34.854Z,69.29
2023-02-11T21:25:06.450Z,68.41
2023-02-11T21:27:37.227Z,66.85
2023-02-11T21:30:11.214Z,66.43
2023-02-11T21:32:39.007Z,66.07
2023-02-11T21:35:09.914Z,66.64
2023-02-11T21:37:58.307Z,66.80
2023-02-11T21:40:29.517Z,67.80
2023-02-11T21:43:08.564Z,67.18
2023-02-11T21:45:48.101Z,65.67
2023-02-11T21:48:15.867Z,65.15
2023-02-11T21:50:58.267Z,65.65
2023-02-11T21:53:25.483Z,66.43
2023-02-11T21:56:14.846Z,67.47
2023-02-11T21:58:47.660Z,68.77
2023-02-11T22:01:43.908Z,68.29
2023-02-11T22:04:17.485Z,66.68
2023-02-11T22:06:45.078Z,66.71
2023-02-11T22:09:14.758Z,67.35
2023-02-11T22:12:09.016Z,67.56
2023-02-11T22:14:38.770Z,67.77
2023-02-11T22:17:08.910Z,69.12
2023-02-11T22:19:44.075Z,68.65
2023-02-11T22:22:18.253Z,67.26
2023-02-11T22:24:56.961Z,66.68
2023-02-11T22:27:31.976Z,67.32
2023-02-11T22:30:05.725Z,68.44
2023-02-11T22:32:38.819Z,69.70
2023-02-11T22:35:09.716Z,70.22
2023-02-11T22:37:38.688Z,69.98
2023-02-11T22:40:10.138Z,68.39
2023-02-11T22:42:40.788Z,67.94
2023-02-11T22:45:17.359Z,68.40
2023-02-11T22:47:50.546Z,68.68
2023-02-11T22:50:25.248Z,69.61
2023-02-11T22:52:53.686Z,69.48
2023-02-11T22:55:29.479Z,68.14
2023-02-11T22:57:57.008Z,68.06
2023-02-11T23:00:24.454Z,68.88
2023-02-11T23:02:59.572Z,69.13
2023-02-11T23:05:27.455Z,69.58
2023-02-11T23:08:44.053Z,70.08
2023-02-11T23:12:32.427Z,68.87
2023-02-11T23:16:40.241Z,67.67
2023-02-11T23:19:53.298Z,68.41
2023-02-11T23:22:25.631Z,69.12
2023-02-11T23:25:14.747Z,69.87
2023-02-11T23:28:18.916Z,70.69
2023-02-11T23:31:20.939Z,69.70
2023-02-11T23:33:55.051Z,68.53
2023-02-11T23:37:00.520Z,68.67
2023-02-11T23:39:46.457Z,69.16
2023-02-11T23:42:24.061Z,69.90
2023-02-11T23:45:11.519Z,70.29
2023-02-11T23:47:51.080Z,69.63
2023-02-11T23:50:18.650Z,68.38
2023-02-11T23:52:49.012Z,68.46
2023-02-11T23:55:39.996Z,69.11
2023-02-11T23:58:10.875Z,69.94
